Time;durP1;ratioP1;P1;durP2;ratioP2;P2;SDS_P1;SDS_P2;PMS_P1;PMS_P2;Temp;Humidity;BMP_temperature;BMP_pressure;BME280_temperature;BME280_humidity;BME280_pressure;Samples;Min_cycle;Max_cycle;Signal;HPM_P1;HPM_P2
2022/12/13 00:01:29;;;;;;;38.67;20.13;;;-5.70;99.90;;;;;;5093628;27;20522;-75
2022/12/13 00:03:57;;;;;;;35.30;18.33;;;-5.70;99.90;;;;;;5118200;27;20097;-75
2022/12/13 00:06:23;;;;;;;37.10;18.08;;;-5.70;99.90;;;;;;5044247;28;20053;-75
2022/12/13 00:10:31;;;;;;;34.28;18.60;;;-5.70;99.90;;;;;;5195478;27;20621;-74
2022/12/13 00:12:58;;;;;;;39.88;18.88;;;-5.60;99.90;;;;;;5132325;27;20039;-75
2022/12/13 00:15:23;;;;;;;40.35;19.95;;;-5.80;99.90;;;;;;5152858;27;20122;-74
2022/12/13 00:17:49;;;;;;;38.45;19.58;;;-5.70;99.90;;;;;;5163546;27;20071;-74
2022/12/13 00:20:15;;;;;;;39.15;19.08;;;-5.80;99.90;;;;;;5086969;27;20417;-74
2022/12/13 00:22:41;;;;;;;42.28;18.70;;;-5.80;99.90;;;;;;5011226;28;20100;-75
2022/12/13 00:26:59;;;;;;;36.67;18.92;;;-5.80;99.90;;;;;;5211555;27;20415;-74
2022/12/13 00:29:25;;;;;;;33.50;18.90;;;-5.80;99.90;;;;;;5132895;27;20047;-74
2022/12/13 00:31:51;;;;;;;40.70;18.80;;;-5.80;99.90;;;;;;5110614;27;20039;-74
2022/12/13 00:34:17;;;;;;;35.92;18.75;;;-5.90;99.90;;;;;;5113266;27;20451;-74
2022/12/13 00:36:43;;;;;;;36.05;17.88;;;-5.90;99.90;;;;;;4984014;28;20414;-74
2022/12/13 00:39:12;;;;;;;37.33;17.52;;;-5.90;99.90;;;;;;4943574;28;20416;-74
2022/12/13 00:41:39;;;;;;;33.28;16.30;;;-5.90;99.90;;;;;;4784416;29;22770;-74
2022/12/13 00:44:26;;;;;;;36.63;17.73;;;-5.80;99.90;;;;;;5211823;27;20151;-74
2022/12/13 00:46:52;;;;;;;37.25;18.67;;;-6.00;99.90;;;;;;5153239;27;20444;-74
2022/12/13 00:49:18;;;;;;;34.30;18.25;;;-6.00;99.90;;;;;;5128385;27;20104;-74
2022/12/13 00:51:44;;;;;;;36.60;19.05;;;-6.00;99.90;;;;;;5095111;28;20410;-75
2022/12/13 00:54:10;;;;;;;41.33;17.75;;;-6.00;99.90;;;;;;5017044;28;20130;-76
2022/12/13 00:56:36;;;;;;;41.45;19.10;;;-6.00;99.90;;;;;;4944674;28;20052;-75
2022/12/13 00:59:03;;;;;;;34.10;17.70;;;-6.00;99.90;;;;;;4804744;29;20058;-76
2022/12/13 01:02:14;;;;;;;37.17;19.25;;;-6.10;99.90;;;;;;5199726;27;20132;-74
2022/12/13 01:04:40;;;;;;;37.42;17.77;;;-6.10;99.90;;;;;;5150922;27;20046;-74
2022/12/13 01:07:05;;;;;;;45.35;18.88;;;-6.10;99.90;;;;;;5147557;27;20508;-74
2022/12/13 01:09:32;;;;;;;37.67;16.80;;;-6.10;99.90;;;;;;5073978;28;20045;-75
2022/12/13 01:12:04;;;;;;;35.72;17.63;;;-6.10;99.90;;;;;;4984196;28;20067;-75
2022/12/13 01:14:30;;;;;;;37.53;18.33;;;-6.20;99.90;;;;;;4901866;28;20128;-75
2022/12/13 01:16:56;;;;;;;34.78;18.33;;;-6.20;99.90;;;;;;4735190;29;20134;-75
2022/12/13 01:21:25;;;;;;;34.72;19.02;;;-6.20;99.90;;;;;;5211137;27;20131;-74
2022/12/13 01:23:51;;;;;;;34.28;18.98;;;-6.20;99.90;;;;;;5153611;27;20399;-74
2022/12/13 01:26:21;;;;;;;34.92;17.42;;;-6.20;99.90;;;;;;5132543;27;20122;-74
2022/12/13 01:28:48;;;;;;;39.83;18.15;;;-6.20;99.90;;;;;;5090832;28;20102;-74
2022/12/13 01:31:16;;;;;;;32.72;18.27;;;-6.30;99.90;;;;;;5029427;28;20057;-74
2022/12/13 01:33:42;;;;;;;35.67;16.95;;;-6.30;99.90;;;;;;4892836;28;20144;-74
2022/12/13 01:36:12;;;;;;;38.55;16.85;;;-6.30;99.90;;;;;;4757301;29;20141;-74
2022/12/13 01:40:08;;;;;;;35.15;18.05;;;-6.30;99.90;;;;;;5180456;27;20137;-74
2022/12/13 01:42:37;;;;;;;38.58;17.77;;;-6.30;99.90;;;;;;5116189;27;20497;-74
2022/12/13 01:45:18;;;;;;;35.80;17.45;;;-6.30;99.90;;;;;;5111785;27;20064;-74
2022/12/13 01:47:51;;;;;;;35.15;17.40;;;-6.40;99.90;;;;;;5071609;28;20071;-75
2022/12/13 01:50:22;;;;;;;33.95;18.65;;;-6.30;99.90;;;;;;4997300;28;20077;-77
2022/12/13 01:52:49;;;;;;;35.00;18.17;;;-6.30;99.90;;;;;;4905828;28;20045;-77
2022/12/13 01:55:17;;;;;;;35.33;17.63;;;-6.30;99.90;;;;;;4803356;29;20051;-77
2022/12/13 01:59:51;;;;;;;34.08;17.08;;;-6.30;99.90;;;;;;5191509;27;20482;-74
2022/12/13 02:02:17;;;;;;;35.95;17.77;;;-6.30;99.90;;;;;;5153885;27;20046;-75
2022/12/13 02:04:54;;;;;;;36.38;18.13;;;-6.40;99.90;;;;;;5151436;27;20402;-75
2022/12/13 02:07:25;;;;;;;35.33;16.58;;;-6.40;99.90;;;;;;5114989;27;20104;-75
2022/12/13 02:09:54;;;;;;;37.40;18.08;;;-6.40;99.90;;;;;;4981466;28;20095;-75
2022/12/13 02:12:20;;;;;;;31.55;16.10;;;-6.30;99.90;;;;;;4850390;29;20052;-75
2022/12/13 02:14:46;;;;;;;31.88;16.38;;;-6.30;99.90;;;;;;4717780;29;20050;-75
2022/12/13 02:19:26;;;;;;;37.08;17.90;;;-6.30;99.90;;;;;;5201206;27;20128;-74
2022/12/13 02:22:05;;;;;;;36.78;18.13;;;-6.30;99.90;;;;;;5104772;27;20104;-74
2022/12/13 02:24:43;;;;;;;37.40;17.77;;;-6.40;99.90;;;;;;5115516;28;20173;-74
2022/12/13 02:27:21;;;;;;;33.92;17.17;;;-6.40;99.90;;;;;;5040603;28;20506;-74
2022/12/13 02:30:32;;;;;;;40.20;18.73;;;-6.40;99.90;;;;;;4944935;28;20192;-75
2022/12/13 02:33:19;;;;;;;37.58;17.25;;;-6.40;99.90;;;;;;4721630;29;20135;-74
2022/12/13 02:37:08;;;;;;;38.22;17.98;;;-6.40;99.90;;;;;;5211677;27;20128;-74
2022/12/13 02:39:40;;;;;;;35.25;16.75;;;-6.30;99.90;;;;;;5136180;27;20047;-74
2022/12/13 02:42:26;;;;;;;35.85;17.15;;;-6.40;99.90;;;;;;5125522;27;20039;-74
2022/12/13 02:45:02;;;;;;;39.70;18.35;;;-6.40;99.90;;;;;;5089258;28;20455;-74
2022/12/13 02:47:29;;;;;;;31.45;17.35;;;-6.40;99.90;;;;;;5019090;28;20105;-74
2022/12/13 02:50:01;;;;;;;40.28;20.23;;;-6.30;99.90;;;;;;4877584;28;20457;-74
2022/12/13 02:55:15;;;;;;;37.97;19.92;;;-6.40;99.90;;;;;;5212008;27;20147;-73
2022/12/13 02:57:43;;;;;;;35.15;18.15;;;-6.40;99.90;;;;;;5135451;27;20346;-74
2022/12/13 03:00:11;;;;;;;39.22;19.55;;;-6.30;99.90;;;;;;5071677;28;20045;-74
2022/12/13 03:02:39;;;;;;;38.85;19.30;;;-6.30;99.90;;;;;;5040390;28;20124;-74
2022/12/13 03:08:29;;;;;;;37.63;18.92;;;-6.30;99.90;;;;;;4896356;29;20063;-74
2022/12/13 03:13:59;;;;;;;36.33;17.17;;;-6.30;99.90;;;;;;5211956;27;20131;-74
2022/12/13 03:16:42;;;;;;;33.00;18.07;;;-6.30;99.90;;;;;;5141093;27;20042;-75
2022/12/13 03:19:10;;;;;;;36.90;19.02;;;-6.30;99.90;;;;;;5104042;28;20098;-75
2022/12/13 03:21:47;;;;;;;35.90;18.60;;;-6.20;99.90;;;;;;5045824;28;20042;-75
2022/12/13 03:24:15;;;;;;;41.95;18.55;;;-6.30;99.90;;;;;;4993065;28;20142;-75
2022/12/13 03:26:40;;;;;;;38.38;19.63;;;-6.30;99.90;;;;;;4993518;28;20130;-75
2022/12/13 03:29:06;;;;;;;34.47;18.67;;;-6.30;99.90;;;;;;4784911;28;20073;-75
2022/12/13 03:33:17;;;;;;;33.45;19.30;;;-6.40;99.90;;;;;;5211555;27;20128;-74
2022/12/13 03:35:44;;;;;;;42.22;18.92;;;-6.40;99.90;;;;;;5153019;27;20114;-74
2022/12/13 03:38:11;;;;;;;35.92;17.80;;;-6.40;99.90;;;;;;5147833;27;20477;-74
2022/12/13 03:40:36;;;;;;;36.40;18.85;;;-6.40;99.90;;;;;;5091259;28;20404;-74
2022/12/13 03:43:02;;;;;;;37.88;19.20;;;-6.40;99.90;;;;;;4979469;28;20118;-74
2022/12/13 03:45:28;;;;;;;41.90;17.58;;;-6.30;99.90;;;;;;4822226;29;20407;-74
2022/12/13 03:47:54;;;;;;;38.00;19.65;;;-6.40;99.90;;;;;;4494772;30;20061;-74
2022/12/13 03:52:28;;;;;;;35.88;18.65;;;-6.40;99.90;;;;;;5211293;27;20143;-74
2022/12/13 03:54:54;;;;;;;34.45;18.20;;;-6.40;99.90;;;;;;5153158;27;20492;-74
2022/12/13 03:57:20;;;;;;;36.50;17.40;;;-6.40;99.90;;;;;;5136894;27;20031;-74
2022/12/13 03:59:45;;;;;;;34.58;18.52;;;-6.50;99.90;;;;;;5126661;27;20153;-74
2022/12/13 04:02:11;;;;;;;35.97;18.10;;;-6.50;99.90;;;;;;5095800;27;20032;-74
2022/12/13 04:04:37;;;;;;;34.13;18.25;;;-6.50;99.90;;;;;;4955832;28;23072;-74
2022/12/13 04:07:03;;;;;;;33.60;18.25;;;-6.50;99.90;;;;;;4752950;29;20489;-74
2022/12/13 04:13:54;;;;;;;32.38;16.92;;;-6.60;99.90;;;;;;5151898;27;20039;-74
2022/12/13 04:16:20;;;;;;;34.47;18.30;;;-6.60;99.90;;;;;;5121278;27;20047;-73
2022/12/13 04:18:46;;;;;;;35.47;19.30;;;-6.60;99.90;;;;;;5109675;27;20042;-74
2022/12/13 04:21:12;;;;;;;33.20;17.33;;;-6.60;99.90;;;;;;5071156;28;20040;-74
2022/12/13 04:23:37;;;;;;;36.53;17.70;;;-6.70;99.90;;;;;;5029840;28;20050;-75
2022/12/13 04:26:03;;;;;;;34.30;17.73;;;-6.70;99.90;;;;;;4925382;28;20481;-75
2022/12/13 04:28:41;;;;;;;35.05;16.88;;;-6.60;99.90;;;;;;5193842;27;20144;-74
2022/12/13 04:31:07;;;;;;;31.08;16.33;;;-6.70;99.90;;;;;;5147038;27;20520;-74
2022/12/13 04:33:33;;;;;;;36.28;16.95;;;-6.70;99.90;;;;;;5087800;28;20103;-74
2022/12/13 04:35:59;;;;;;;34.83;17.13;;;-6.70;99.90;;;;;;5073255;28;20518;-74
2022/12/13 04:38:24;;;;;;;35.25;17.60;;;-6.70;99.90;;;;;;5000048;28;20114;-74
2022/12/13 04:40:50;;;;;;;32.05;16.98;;;-6.80;99.90;;;;;;4884911;28;20096;-74
2022/12/13 04:43:16;;;;;;;35.63;18.60;;;-6.70;99.90;;;;;;4532203;30;20492;-74
2022/12/13 04:48:08;;;;;;;36.97;17.45;;;-6.80;99.90;;;;;;5208071;27;20148;-74
2022/12/13 04:50:33;;;;;;;33.15;17.63;;;-6.80;99.90;;;;;;5140900;27;20487;-74
2022/12/13 04:52:59;;;;;;;36.60;18.08;;;-6.80;99.90;;;;;;5163383;27;20049;-74
2022/12/13 04:55:25;;;;;;;36.78;16.65;;;-6.80;99.90;;;;;;5158850;27;20046;-74
2022/12/13 04:57:51;;;;;;;32.97;16.98;;;-6.80;99.90;;;;;;5092559;28;20048;-74
2022/12/13 05:00:16;;;;;;;34.25;16.70;;;-6.70;99.90;;;;;;4980987;28;20052;-75
2022/12/13 05:02:42;;;;;;;35.95;16.98;;;-6.80;99.90;;;;;;4841762;29;20056;-75
2022/12/13 05:07:46;;;;;;;36.45;16.65;;;-6.80;99.90;;;;;;5201912;27;20136;-74
2022/12/13 05:10:12;;;;;;;37.17;17.73;;;-6.80;99.90;;;;;;5154599;27;20544;-74
2022/12/13 05:12:38;;;;;;;37.25;18.55;;;-6.80;99.90;;;;;;5148082;27;20034;-74
2022/12/13 05:15:05;;;;;;;32.53;16.98;;;-6.80;99.90;;;;;;5135391;27;20051;-74
2022/12/13 05:17:31;;;;;;;33.45;17.60;;;-6.80;99.90;;;;;;5037887;28;20046;-74
2022/12/13 05:19:56;;;;;;;35.55;18.00;;;-6.80;99.90;;;;;;4901442;28;20070;-75
2022/12/13 05:22:22;;;;;;;35.40;17.67;;;-6.80;99.90;;;;;;4564915;29;20420;-75
2022/12/13 05:26:59;;;;;;;31.55;17.67;;;-6.70;99.90;;;;;;5211798;27;20557;-74
2022/12/13 05:29:26;;;;;;;34.47;17.17;;;-6.80;99.90;;;;;;5134252;27;20039;-74
2022/12/13 05:31:52;;;;;;;31.50;16.00;;;-6.80;99.90;;;;;;5116563;27;20182;-74
2022/12/13 05:34:18;;;;;;;39.25;17.98;;;-6.80;99.90;;;;;;5099560;28;20104;-75
2022/12/13 05:36:44;;;;;;;35.80;17.90;;;-6.80;99.90;;;;;;5061157;28;20042;-75
2022/12/13 05:39:09;;;;;;;42.15;18.85;;;-6.80;99.90;;;;;;4998930;28;20047;-75
2022/12/13 05:41:36;;;;;;;38.35;18.30;;;-6.80;99.90;;;;;;4817816;29;20448;-77
2022/12/13 05:44:14;;;;;;;38.30;18.60;;;-6.80;99.90;;;;;;5209991;27;20234;-74
2022/12/13 05:46:40;;;;;;;39.00;18.80;;;-6.80;99.90;;;;;;5140358;27;20509;-77
2022/12/13 05:49:06;;;;;;;42.17;20.63;;;-6.80;99.90;;;;;;5138308;27;20063;-77
2022/12/13 05:51:32;;;;;;;38.78;20.15;;;-6.70;99.90;;;;;;5105457;28;20055;-77
2022/12/13 05:53:57;;;;;;;40.70;19.80;;;-6.70;99.90;;;;;;5026976;28;20050;-76
2022/12/13 05:56:23;;;;;;;38.72;20.48;;;-6.70;99.90;;;;;;4936413;28;20064;-77
2022/12/13 05:58:49;;;;;;;41.25;20.30;;;-6.60;99.90;;;;;;4612980;29;20599;-76
2022/12/13 06:01:15;;;;;;;37.50;19.38;;;-6.60;99.90;;;;;;3996005;32;20163;-77
2022/12/13 06:03:48;;;;;;;45.72;20.95;;;-6.60;99.90;;;;;;5202095;27;20151;-77
2022/12/13 06:06:16;;;;;;;45.30;22.80;;;-6.50;99.90;;;;;;5128790;27;20046;-77
2022/12/13 06:08:43;;;;;;;42.92;20.40;;;-6.50;99.90;;;;;;5122160;27;20051;-74
2022/12/13 06:11:08;;;;;;;39.97;20.40;;;-6.50;99.90;;;;;;5102014;27;20123;-74
2022/12/13 06:13:34;;;;;;;41.17;20.35;;;-6.40;99.90;;;;;;5102214;28;20418;-74
2022/12/13 06:16:04;;;;;;;39.95;20.58;;;-6.40;99.90;;;;;;4983996;28;20131;-77
2022/12/13 06:18:32;;;;;;;41.78;21.48;;;-6.50;99.90;;;;;;4750349;29;20091;-77
2022/12/13 06:22:29;;;;;;;41.95;20.13;;;-6.50;99.90;;;;;;5207875;27;20124;-74
2022/12/13 06:24:55;;;;;;;43.20;21.63;;;-6.50;99.90;;;;;;5138032;27;20376;-74
2022/12/13 06:27:20;;;;;;;39.25;19.60;;;-6.50;99.90;;;;;;5107013;27;20091;-74
2022/12/13 06:29:46;;;;;;;43.47;18.38;;;-6.50;99.90;;;;;;5037412;28;20049;-74
2022/12/13 06:32:12;;;;;;;43.65;21.02;;;-6.50;99.90;;;;;;5005481;28;20647;-75
2022/12/13 06:34:38;;;;;;;45.40;21.70;;;-6.50;99.90;;;;;;4962589;28;20178;-74
2022/12/13 06:39:09;;;;;;;51.88;24.02;;;-6.60;99.90;;;;;;5191504;27;20128;-74
2022/12/13 06:41:35;;;;;;;48.42;23.30;;;-6.70;99.90;;;;;;5134517;27;20054;-74
2022/12/13 06:44:01;;;;;;;45.10;24.52;;;-6.60;99.90;;;;;;5101355;27;20041;-74
2022/12/13 06:46:27;;;;;;;41.58;21.48;;;-6.70;99.90;;;;;;5123313;27;20070;-74
2022/12/13 06:48:52;;;;;;;49.17;23.55;;;-6.70;99.90;;;;;;5064710;28;20041;-75
2022/12/13 06:51:18;;;;;;;42.00;21.15;;;-6.70;99.90;;;;;;4979356;28;20476;-74
2022/12/13 06:53:44;;;;;;;43.55;20.90;;;-6.70;99.90;;;;;;4754387;29;20054;-76
2022/12/13 06:56:12;;;;;;;37.95;18.63;;;-6.70;99.90;;;;;;4328594;30;20078;-77
2022/12/13 07:00:07;;;;;;;42.38;20.85;;;-6.70;99.90;;;;;;5180934;27;20141;-74
2022/12/13 07:02:33;;;;;;;36.05;19.58;;;-6.70;99.90;;;;;;5107893;27;20129;-74
2022/12/13 07:05:01;;;;;;;46.63;20.42;;;-6.70;99.90;;;;;;5093667;27;20047;-77
2022/12/13 07:07:26;;;;;;;45.80;21.33;;;-6.70;99.90;;;;;;5103078;27;20043;-75
2022/12/13 07:09:52;;;;;;;40.40;19.83;;;-6.70;99.90;;;;;;5046029;28;20092;-75
2022/12/13 07:12:19;;;;;;;43.58;20.25;;;-6.70;99.90;;;;;;4865820;28;20056;-76
2022/12/13 07:14:45;;;;;;;45.05;20.92;;;-6.70;99.90;;;;;;4533778;30;20187;-76
2022/12/13 07:18:18;;;;;;;41.55;20.20;;;-6.70;99.90;;;;;;5196197;27;20471;-76
2022/12/13 07:20:45;;;;;;;33.05;18.52;;;-6.70;99.90;;;;;;5129455;27;20315;-77
2022/12/13 07:23:11;;;;;;;44.65;20.02;;;-6.70;99.90;;;;;;5119334;27;20126;-77
2022/12/13 07:25:36;;;;;;;40.47;19.25;;;-6.80;99.90;;;;;;5152214;27;20034;-77
2022/12/13 07:28:06;;;;;;;40.83;19.55;;;-6.80;99.90;;;;;;5113774;27;20478;-83
2022/12/13 07:30:34;;;;;;;37.92;18.75;;;-6.80;99.90;;;;;;5021476;28;20053;-79
2022/12/13 07:33:03;;;;;;;37.22;20.27;;;-6.80;99.90;;;;;;4872515;28;20052;-79
2022/12/13 07:37:29;;;;;;;39.60;19.90;;;-6.80;99.90;;;;;;5191798;27;20136;-76
2022/12/13 07:39:55;;;;;;;37.08;19.58;;;-6.80;99.90;;;;;;5145088;27;20039;-77
2022/12/13 07:42:21;;;;;;;36.38;18.83;;;-6.80;99.90;;;;;;5134014;27;20075;-77
2022/12/13 07:44:49;;;;;;;40.90;20.45;;;-6.80;99.90;;;;;;5101107;28;20048;-76
2022/12/13 07:47:18;;;;;;;40.97;20.02;;;-6.80;99.90;;;;;;5001649;28;20048;-76
2022/12/13 07:49:46;;;;;;;38.92;18.65;;;-6.80;99.90;;;;;;4797644;29;20072;-77
2022/12/13 07:52:15;;;;;;;50.92;22.05;;;-6.80;99.90;;;;;;4439127;30;20094;-77
2022/12/13 07:54:53;;;;;;;38.35;19.75;;;-6.70;99.90;;;;;;5193726;27;20136;-76
2022/12/13 07:57:22;;;;;;;43.35;20.25;;;-6.70;99.90;;;;;;5144539;27;20487;-77
2022/12/13 07:59:48;;;;;;;40.42;20.60;;;-6.80;99.90;;;;;;5119848;27;20042;-77
2022/12/13 08:02:14;;;;;;;48.80;20.85;;;-6.70;99.90;;;;;;5115356;27;20369;-77
2022/12/13 08:04:42;;;;;;;43.45;20.83;;;-6.70;99.90;;;;;;5061505;28;20056;-77
2022/12/13 08:07:09;;;;;;;48.63;23.33;;;-6.70;99.90;;;;;;4928284;28;20096;-77
2022/12/13 08:12:22;;;;;;;44.38;20.65;;;-6.70;99.90;;;;;;5198531;27;20133;-77
2022/12/13 08:14:48;;;;;;;45.42;21.02;;;-6.70;99.90;;;;;;5144532;27;20054;-77
2022/12/13 08:17:16;;;;;;;44.10;21.58;;;-6.60;99.90;;;;;;5155090;27;20042;-77
2022/12/13 08:19:41;;;;;;;51.72;23.33;;;-6.70;99.90;;;;;;5104756;28;20070;-77
2022/12/13 08:22:12;;;;;;;49.55;22.15;;;-6.60;99.90;;;;;;5012953;28;20048;-77
2022/12/13 08:24:38;;;;;;;40.95;21.42;;;-6.50;99.90;;;;;;4905444;28;20051;-77
2022/12/13 08:27:05;;;;;;;43.55;22.15;;;-6.50;99.90;;;;;;4742136;29;20057;-77
2022/12/13 08:30:16;;;;;;;43.15;20.65;;;-6.40;99.90;;;;;;5189518;27;20133;-77
2022/12/13 08:32:49;;;;;;;41.42;21.27;;;-6.40;99.90;;;;;;5113914;27;20404;-77
2022/12/13 08:35:14;;;;;;;47.10;23.17;;;-6.40;99.90;;;;;;5073429;28;20108;-77
2022/12/13 08:37:41;;;;;;;42.60;20.63;;;-6.40;99.90;;;;;;5038987;28;20087;-77
2022/12/13 08:40:08;;;;;;;44.63;21.52;;;-6.30;99.90;;;;;;4983504;28;20055;-76
2022/12/13 08:42:36;;;;;;;46.63;22.20;;;-6.30;99.90;;;;;;4722024;29;20137;-78
2022/12/13 08:46:06;;;;;;;46.60;23.88;;;-6.30;99.90;;;;;;5187611;27;20122;-78
2022/12/13 08:48:35;;;;;;;46.15;23.35;;;-6.20;99.90;;;;;;5102778;27;20386;-77
2022/12/13 08:51:06;;;;;;;42.95;21.48;;;-6.10;99.90;;;;;;5088990;27;20035;-77
2022/12/13 08:53:32;;;;;;;51.55;23.23;;;-6.10;99.90;;;;;;5051870;28;20076;-77
2022/12/13 08:56:07;;;;;;;50.63;22.30;;;-6.00;99.90;;;;;;4957023;28;20051;-79
2022/12/13 08:58:36;;;;;;;44.25;24.00;;;-5.90;99.90;;;;;;4824621;29;20047;-79
2022/12/13 09:07:12;;;;;;;52.10;24.90;;;-5.80;99.90;;;;;;5181380;27;20125;-80
2022/12/13 09:09:38;;;;;;;55.40;25.52;;;-5.70;99.90;;;;;;5118638;27;20052;-80
2022/12/13 09:12:04;;;;;;;56.13;25.88;;;-5.60;99.90;;;;;;5118008;27;20495;-80
2022/12/13 09:14:31;;;;;;;53.88;26.45;;;-5.50;99.90;;;;;;5093172;28;20046;-80
2022/12/13 09:16:57;;;;;;;55.17;25.40;;;-5.50;99.90;;;;;;5112489;27;20114;-80
2022/12/13 09:19:25;;;;;;;62.38;28.10;;;-5.40;99.90;;;;;;5103740;27;20562;-79
2022/12/13 09:21:53;;;;;;;60.47;25.77;;;-5.40;99.90;;;;;;4884424;28;20100;-79
2022/12/13 09:26:54;;;;;;;60.10;27.80;;;-5.20;99.90;;;;;;5213504;27;20127;-77
2022/12/13 09:29:19;;;;;;;61.33;28.27;;;-5.10;99.90;;;;;;5152113;27;20046;-77
2022/12/13 09:31:48;;;;;;;65.28;28.20;;;-5.10;99.90;;;;;;5105181;27;20040;-77
2022/12/13 09:34:15;;;;;;;63.05;29.55;;;-5.00;99.90;;;;;;5069805;28;20515;-77
2022/12/13 09:36:44;;;;;;;63.90;28.23;;;-4.90;99.90;;;;;;4987891;28;20544;-77
2022/12/13 09:39:13;;;;;;;62.67;27.65;;;-4.80;99.90;;;;;;4683211;29;20061;-77
2022/12/13 09:41:56;;;;;;;67.43;29.27;;;-4.70;99.90;;;;;;5213840;27;20128;-76
2022/12/13 09:44:35;;;;;;;64.50;29.53;;;-4.60;99.90;;;;;;5103047;27;20070;-77
2022/12/13 09:47:14;;;;;;;63.17;29.15;;;-4.40;99.90;;;;;;5045078;28;20051;-77
2022/12/13 09:49:43;;;;;;;58.85;28.50;;;-4.30;99.90;;;;;;5015882;28;20043;-78
2022/12/13 09:52:20;;;;;;;59.38;29.00;;;-4.10;99.90;;;;;;4950840;28;20131;-79
2022/12/13 09:54:58;;;;;;;61.10;29.42;;;-4.20;99.90;;;;;;4858657;29;20136;-77
2022/12/13 09:57:29;;;;;;;56.00;28.15;;;-4.00;99.90;;;;;;4602548;30;20055;-76
2022/12/13 10:02:28;;;;;;;59.85;29.67;;;-3.90;99.90;;;;;;5198938;27;20148;-77
2022/12/13 10:05:24;;;;;;;61.08;28.75;;;-3.80;99.90;;;;;;5116002;27;20298;-77
2022/12/13 10:08:18;;;;;;;60.78;28.75;;;-3.70;99.90;;;;;;5038909;28;20060;-76
2022/12/13 10:10:44;;;;;;;68.85;31.42;;;-3.60;99.90;;;;;;5002025;28;20042;-77
2022/12/13 10:13:18;;;;;;;66.38;31.50;;;-3.50;99.90;;;;;;4897520;28;20104;-77
2022/12/13 10:15:49;;;;;;;73.28;32.70;;;-3.50;99.90;;;;;;4678920;29;20058;-76
2022/12/13 10:18:33;;;;;;;75.50;33.47;;;-3.40;99.90;;;;;;4466528;31;20745;-76
2022/12/13 10:22:49;;;;;;;65.07;32.58;;;-3.40;99.90;;;;;;5211737;27;20135;-76
2022/12/13 10:25:37;;;;;;;64.10;31.08;;;-3.30;99.90;;;;;;5137161;27;20488;-76
2022/12/13 10:28:05;;;;;;;65.80;31.10;;;-3.30;99.90;;;;;;5091726;28;20050;-76
2022/12/13 10:30:43;;;;;;;63.40;30.77;;;-3.20;99.90;;;;;;5057489;28;20533;-79
2022/12/13 10:33:22;;;;;;;60.05;31.98;;;-3.20;99.90;;;;;;5015468;28;20058;-77
2022/12/13 10:36:42;;;;;;;60.90;30.40;;;-3.10;99.90;;;;;;4866138;28;20065;-80
2022/12/13 10:39:38;;;;;;;62.40;31.50;;;-3.00;99.90;;;;;;4638874;25;20960;-79
2022/12/13 10:42:13;;;;;;;64.28;29.98;;;-2.90;99.90;;;;;;4260886;32;20079;-78
2022/12/13 10:46:01;;;;;;;64.72;32.55;;;-2.90;99.90;;;;;;5148430;27;20126;-79
2022/12/13 10:48:38;;;;;;;65.25;32.42;;;-2.70;99.90;;;;;;5074229;28;20040;-78
2022/12/13 10:51:04;;;;;;;68.65;31.90;;;-2.70;99.90;;;;;;4989787;28;20043;-78
2022/12/13 10:53:34;;;;;;;65.45;31.88;;;-2.70;99.90;;;;;;5002275;28;20049;-78
2022/12/13 10:56:01;;;;;;;62.17;30.60;;;-2.50;99.90;;;;;;4940362;28;20051;-78
2022/12/13 10:58:38;;;;;;;71.05;33.83;;;-2.50;99.90;;;;;;4770006;29;20064;-79
2022/12/13 11:01:22;;;;;;;68.32;31.10;;;-2.50;99.90;;;;;;4459354;30;20069;-79
2022/12/13 11:06:33;;;;;;;66.53;33.78;;;-2.40;99.90;;;;;;5193937;27;20451;-78
2022/12/13 11:09:12;;;;;;;76.95;35.05;;;-2.20;99.90;;;;;;5105714;27;20051;-78
2022/12/13 11:11:40;;;;;;;74.00;33.65;;;-2.20;99.90;;;;;;5069687;28;20136;-78
2022/12/13 11:14:15;;;;;;;95.82;64.32;;;-2.00;99.90;;;;;;5049469;27;20045;-78
2022/12/13 11:16:59;;;;;;;78.38;35.05;;;-1.90;99.90;;;;;;4950306;28;20044;-77
2022/12/13 11:19:39;;;;;;;96.50;63.50;;;-1.80;99.90;;;;;;4717508;29;20046;-78
2022/12/13 11:22:07;;;;;;;69.30;34.80;;;-1.70;99.90;;;;;;4155376;32;22787;-77
2022/12/13 11:26:24;;;;;;;67.22;34.25;;;-1.60;99.90;;;;;;5174370;27;20377;-79
2022/12/13 11:29:45;;;;;;;72.95;33.15;;;-1.30;99.90;;;;;;5110515;27;20165;-79
2022/12/13 11:33:06;;;;;;;87.50;61.83;;;-1.20;99.90;;;;;;5078198;28;20051;-77
2022/12/13 11:36:20;;;;;;;64.15;32.92;;;-1.10;99.90;;;;;;4986543;28;20097;-78
2022/12/13 11:39:17;;;;;;;81.88;56.90;;;-0.90;99.90;;;;;;4947266;28;20056;-76
2022/12/13 11:42:03;;;;;;;82.28;56.33;;;-0.80;99.90;;;;;;4699242;29;20069;-77
2022/12/13 11:44:54;;;;;;;78.55;53.92;;;-0.50;99.90;;;;;;4558243;30;20060;-77
2022/12/13 11:47:32;;;;;;;74.78;54.05;;;-0.40;99.90;;;;;;4079782;32;20165;-77
2022/12/13 11:52:11;;;;;;;77.03;54.20;;;-0.20;99.90;;;;;;5197599;27;20144;-77
2022/12/13 11:58:43;;;;;;;67.95;50.38;;;0.40;99.90;;;;;;5157522;27;20452;-77
2022/12/13 12:01:26;;;;;;;71.93;52.60;;;0.70;99.90;;;;;;5102479;27;20050;-78
2022/12/13 12:04:18;;;;;;;;;;;0.90;99.90;;;;;;5040718;28;20123;-78
2022/12/13 12:06:59;;;;;;;64.90;48.75;;;0.90;99.90;;;;;;4924388;28;20005;-78
2022/12/13 12:09:30;;;;;;;63.67;46.20;;;1.00;99.90;;;;;;4703371;29;20472;-78
2022/12/13 12:12:05;;;;;;;67.82;48.08;;;1.10;99.90;;;;;;4400078;30;20218;-78
2022/12/13 12:14:52;;;;;;;61.10;45.20;;;1.20;99.90;;;;;;5178542;27;20141;-78
2022/12/13 12:17:25;;;;;;;55.38;43.30;;;1.20;99.90;;;;;;5105327;27;20396;-78
2022/12/13 12:19:57;;;;;;;54.28;42.20;;;1.30;99.90;;;;;;5116097;28;20678;-78
2022/12/13 12:22:22;;;;;;;51.58;41.35;;;1.30;99.90;;;;;;5108190;27;20034;-78
2022/12/13 12:25:17;;;;;;;53.17;41.33;;;1.30;99.90;;;;;;5087391;28;20336;-79
2022/12/13 12:28:05;;;;;;;53.55;41.35;;;1.30;99.90;;;;;;4741441;28;20210;-77
2022/12/13 12:31:07;;;;;;;48.15;39.97;;;1.30;99.90;;;;;;5185596;27;20132;-77
2022/12/13 12:33:48;;;;;;;50.08;39.40;;;1.30;99.90;;;;;;5117007;27;20043;-78
2022/12/13 12:36:53;;;;;;;49.95;39.30;;;1.30;99.90;;;;;;5095274;27;20058;-78
2022/12/13 12:39:35;;;;;;;52.00;39.95;;;1.30;99.90;;;;;;5028703;28;20462;-78
2022/12/13 12:42:10;;;;;;;50.22;38.88;;;1.20;99.90;;;;;;4951412;28;20062;-78
2022/12/13 12:44:45;;;;;;;48.90;37.65;;;1.20;99.90;;;;;;4756360;29;20055;-76
2022/12/13 12:47:37;;;;;;;48.42;38.30;;;1.10;99.90;;;;;;4448570;30;20082;-76
2022/12/13 12:52:40;;;;;;;50.10;40.28;;;1.10;99.90;;;;;;5198881;27;20140;-76
2022/12/13 12:55:47;;;;;;;49.85;38.92;;;0.90;99.90;;;;;;5123149;27;21182;-75
2022/12/13 12:58:32;;;;;;;47.90;37.17;;;0.90;99.90;;;;;;5117471;27;20038;-75
2022/12/13 13:01:35;;;;;;;45.33;36.67;;;0.70;99.90;;;;;;5090366;28;20044;-75
2022/12/13 13:04:06;;;;;;;48.35;37.83;;;0.70;99.90;;;;;;4894514;28;20460;-75
2022/12/13 13:06:47;;;;;;;49.65;39.33;;;0.70;99.90;;;;;;4714576;29;20437;-75
2022/12/13 13:09:16;;;;;;;49.50;39.53;;;0.50;99.90;;;;;;4486484;31;20063;-75
2022/12/13 13:16:25;;;;;;;46.97;38.30;;;0.40;99.90;;;;;;5170654;27;20437;-75
2022/12/13 13:18:57;;;;;;;47.00;37.03;;;0.30;99.90;;;;;;5151531;27;20138;-75
2022/12/13 13:21:31;;;;;;;46.45;38.53;;;0.30;99.90;;;;;;5129664;27;20130;-75
2022/12/13 13:24:00;;;;;;;45.42;38.05;;;0.30;99.90;;;;;;5117715;27;20070;-75
2022/12/13 13:26:30;;;;;;;46.97;37.95;;;0.20;99.90;;;;;;5117625;27;20369;-75
2022/12/13 13:29:25;;;;;;;50.05;39.20;;;0.20;99.90;;;;;;5115752;27;20070;-75
2022/12/13 13:32:11;;;;;;;50.03;39.42;;;0.10;99.90;;;;;;5112338;27;20489;-75
2022/12/13 13:34:42;;;;;;;53.58;39.33;;;0.10;99.90;;;;;;5128855;27;20121;-75
2022/12/13 13:37:20;;;;;;;46.03;37.95;;;0.00;99.90;;;;;;5118541;27;20043;-75
2022/12/13 13:39:57;;;;;;;47.65;38.53;;;0.00;99.90;;;;;;5113074;27;20038;-75
2022/12/13 13:42:28;;;;;;;44.60;36.47;;;0.00;99.90;;;;;;5119111;27;20031;-75
2022/12/13 13:45:23;;;;;;;46.40;36.95;;;-0.10;99.90;;;;;;5121175;27;20488;-75
2022/12/13 13:48:21;;;;;;;47.17;37.65;;;-0.10;99.90;;;;;;5117823;27;20054;-75
2022/12/13 13:50:58;;;;;;;46.65;36.55;;;-0.20;99.90;;;;;;5120398;27;20070;-75
2022/12/13 13:54:01;;;;;;;44.38;36.13;;;-0.30;99.90;;;;;;5121668;27;20121;-75
2022/12/13 13:56:34;;;;;;;;;;;-0.30;99.90;;;;;;5115274;27;20046;-75
2022/12/13 13:59:31;;;;;;;46.53;37.03;;;-0.40;99.90;;;;;;5121591;27;19922;-75
2022/12/13 14:02:32;;;;;;;47.60;37.72;;;-0.40;99.90;;;;;;5105982;27;20031;-75
2022/12/13 14:05:23;;;;;;;48.20;38.65;;;-0.50;99.90;;;;;;5110840;27;20111;-75
2022/12/13 14:08:10;;;;;;;47.25;38.58;;;-0.60;99.90;;;;;;5108608;27;20039;-75
2022/12/13 14:11:14;;;;;;;48.60;37.97;;;-0.70;99.90;;;;;;5125918;27;20035;-75
2022/12/13 14:13:39;;;;;;;;;;;-0.80;99.90;;;;;;5110344;27;20046;-75
2022/12/13 14:16:29;;;;;;;50.55;39.03;;;-0.70;99.90;;;;;;5105206;27;19927;-75